sensor_id;sensor_type;location;lat;lon;timestamp;pressure;altitude;pressure_sealevel;temperature;humidity
74702;BME280;63227;50.978;5.940;2022-09-02T13:39:08;100613.0;;;26.8;38.1
74702;BME280;63227;50.978;5.940;2022-09-02T13:54:43;100591.0;;;26.7;37.7
74702;BME280;63227;50.978;5.940;2022-09-02T13:59:56;100587.0;;;26.6;37.8
74702;BME280;63227;50.978;5.940;2022-09-02T14:05:15;100582.0;;;26.6;37.1
74702;BME280;63227;50.978;5.940;2022-09-02T14:10:27;100579.0;;;26.6;37.4
74702;BME280;63227;50.978;5.940;2022-09-02T14:15:41;100574.0;;;26.5;37.0
74702;BME280;63227;50.978;5.940;2022-09-02T14:20:57;100573.0;;;26.5;36.9
74702;BME280;63227;50.978;5.940;2022-09-02T14:26:18;100568.0;;;26.5;36.8
74702;BME280;63227;50.978;5.940;2022-09-02T14:31:28;100562.0;;;26.5;36.8
74702;BME280;63227;50.978;5.940;2022-09-02T14:36:41;100557.0;;;26.5;36.9
74702;BME280;63227;50.978;5.940;2022-09-02T14:41:56;100551.0;;;26.5;37.1
74702;BME280;63227;50.978;5.940;2022-09-02T14:47:14;100545.0;;;26.5;37.3
74702;BME280;63227;50.978;5.940;2022-09-02T14:52:29;100541.0;;;26.5;37.0
74702;BME280;63227;50.978;5.940;2022-09-02T14:57:41;100536.0;;;26.5;36.6
74702;BME280;63227;50.978;5.940;2022-09-02T15:02:57;100532.0;;;26.5;36.5
74702;BME280;63227;50.978;5.940;2022-09-02T15:08:12;100529.0;;;26.5;37
74702;BME280;63227;50.978;5.940;2022-09-02T15:13:28;100525.0;;;26.5;37.1
74702;BME280;63227;50.978;5.940;2022-09-02T15:18:42;100523.0;;;26.6;36.6
74702;BME280;63227;50.978;5.940;2022-09-02T15:23:57;100520.0;;;26.6;36.4
74702;BME280;63227;50.978;5.940;2022-09-02T15:29:12;100518.0;;;26.6;36.0
74702;BME280;63227;50.978;5.940;2022-09-02T15:34:27;100515.0;;;26.6;36.0
74702;BME280;63227;50.978;5.940;2022-09-02T15:39:42;100512.0;;;26.6;36.0
74702;BME280;63227;50.978;5.940;2022-09-02T15:44:57;100509.0;;;26.6;36.1
74702;BME280;63227;50.978;5.940;2022-09-02T15:50:12;100508.0;;;26.6;36.1
74702;BME280;63227;50.978;5.940;2022-09-02T15:55:30;100504.0;;;26.6;36.0
74702;BME280;63227;50.978;5.940;2022-09-02T16:00:42;100501.0;;;26.5;35.5
74702;BME280;63227;50.978;5.940;2022-09-02T16:06:00;100499.0;;;26.5;35.3
74702;BME280;63227;50.978;5.940;2022-09-02T16:11:12;100495.0;;;26.5;35.3
74702;BME280;63227;50.978;5.940;2022-09-02T16:16:27;100492.0;;;26.5;35.6
74702;BME280;63227;50.978;5.940;2022-09-02T16:21:42;100488.0;;;26.5;35.5
74702;BME280;63227;50.978;5.940;2022-09-02T16:26:58;100484.0;;;26.5;35.1
74702;BME280;63227;50.978;5.940;2022-09-02T16:32:13;100479.0;;;26.4;35.0
74702;BME280;63227;50.978;5.940;2022-09-02T16:37:28;100476.0;;;26.4;34.7
74702;BME280;63227;50.978;5.940;2022-09-02T16:42:43;100472.0;;;26.4;34.7
74702;BME280;63227;50.978;5.940;2022-09-02T16:47:58;100469.0;;;26.4;34.5
74702;BME280;63227;50.978;5.940;2022-09-02T16:53:15;100466.0;;;26.5;35.1
74702;BME280;63227;50.978;5.940;2022-09-02T16:58:29;100462.0;;;26.4;34.8
74702;BME280;63227;50.978;5.940;2022-09-02T17:03:44;100459.0;;;26.4;34.4
74702;BME280;63227;50.978;5.940;2022-09-02T17:08:58;100457.0;;;26.3;34.6
74702;BME280;63227;50.978;5.940;2022-09-02T17:14:15;100457.0;;;26.3;34.3
74702;BME280;63227;50.978;5.940;2022-09-02T17:19:28;100456.0;;;26.3;34.4
74702;BME280;63227;50.978;5.940;2022-09-02T17:24:43;100455.0;;;26.3;34.6
74702;BME280;63227;50.978;5.940;2022-09-02T17:29:58;100454.0;;;26.2;34.6
74702;BME280;63227;50.978;5.940;2022-09-02T17:35:13;100453.0;;;26.2;35.2
74702;BME280;63227;50.978;5.940;2022-09-02T17:40:28;100453.0;;;26.2;35.4
74702;BME280;63227;50.978;5.940;2022-09-02T17:45:44;100452.0;;;26.1;35.2
74702;BME280;63227;50.978;5.940;2022-09-02T17:50:59;100452.0;;;26.1;35.0
74702;BME280;63227;50.978;5.940;2022-09-02T17:56:20;100452.0;;;26.1;35.1
74702;BME280;63227;50.978;5.940;2022-09-02T18:01:30;100451.0;;;26.1;35.1
74702;BME280;63227;50.978;5.940;2022-09-02T18:06:45;100450.0;;;26.1;35.0
74702;BME280;63227;50.978;5.940;2022-09-02T18:11:59;100448.0;;;26.0;35.2
74702;BME280;63227;50.978;5.940;2022-09-02T18:17:20;100449.0;;;26.1;35.0
74702;BME280;63227;50.978;5.940;2022-09-02T18:22:49;100449.0;;;26.0;34.6
74702;BME280;63227;50.978;5.940;2022-09-02T18:27:50;100450.0;;;26.0;35.5
74702;BME280;63227;50.978;5.940;2022-09-02T18:33:12;100453.0;;;26.0;35.9
74702;BME280;63227;50.978;5.940;2022-09-02T18:38:21;100456.0;;;26.0;36.0
74702;BME280;63227;50.978;5.940;2022-09-02T18:43:36;100460.0;;;26.0;36.3
74702;BME280;63227;50.978;5.940;2022-09-02T18:48:45;100463.0;;;26;36.8
74702;BME280;63227;50.978;5.940;2022-09-02T18:54:05;100467.0;;;26.0;36.6
74702;BME280;63227;50.978;5.940;2022-09-02T18:59:16;100470.0;;;26.0;37.1
74702;BME280;63227;50.978;5.940;2022-09-02T19:04:32;100473.0;;;26.0;37.6
74702;BME280;63227;50.978;5.940;2022-09-02T19:09:45;100476.0;;;26.0;37.1
74702;BME280;63227;50.978;5.940;2022-09-02T19:15:00;100479.0;;;26.0;37.5
74702;BME280;63227;50.978;5.940;2022-09-02T19:20:15;100482.0;;;26.0;37.6
74702;BME280;63227;50.978;5.940;2022-09-02T19:25:30;100484.0;;;26.0;38.3
74702;BME280;63227;50.978;5.940;2022-09-02T19:30:45;100486.0;;;26.0;38.7
74702;BME280;63227;50.978;5.940;2022-09-02T19:36:00;100486.0;;;26.0;38.7
74702;BME280;63227;50.978;5.940;2022-09-02T19:41:15;100487.0;;;26.0;38.9
74702;BME280;63227;50.978;5.940;2022-09-02T19:46:30;100487.0;;;26.0;39.5
74702;BME280;63227;50.978;5.940;2022-09-02T19:51:46;100488.0;;;26.0;39.4
74702;BME280;63227;50.978;5.940;2022-09-02T19:57:00;100490.0;;;26.0;39.8
74702;BME280;63227;50.978;5.940;2022-09-02T20:02:16;100491.0;;;26.0;39.4
74702;BME280;63227;50.978;5.940;2022-09-02T20:07:30;100492.0;;;26.0;40.1
74702;BME280;63227;50.978;5.940;2022-09-02T20:12:45;100492.0;;;26.0;40.2
74702;BME280;63227;50.978;5.940;2022-09-02T20:18:08;100493.0;;;26.0;38.8
74702;BME280;63227;50.978;5.940;2022-09-02T20:23:18;100492.0;;;25.9;40.8
74702;BME280;63227;50.978;5.940;2022-09-02T20:28:35;100490.0;;;26.0;40.3
74702;BME280;63227;50.978;5.940;2022-09-02T20:33:52;100490.0;;;25.9;41.0
74702;BME280;63227;50.978;5.940;2022-09-02T20:39:11;100488.0;;;25.9;41.3
74702;BME280;63227;50.978;5.940;2022-09-02T20:44:55;100486.0;;;25.8;40.8
